Time;durP1;ratioP1;P1;durP2;ratioP2;P2;SDS_P1;SDS_P2;PMS_P1;PMS_P2;Temp;Humidity;BMP_temperature;BMP_pressure;BME280_temperature;BME280_humidity;BME280_pressure;Samples;Min_cycle;Max_cycle;Signal;HPM_P1;HPM_P2
2023/09/14 00:01:04;;;;;;;18.33;10.77;;;22.80;86.30;;;;;;5031949;28;20394;-67
2023/09/14 00:04:07;;;;;;;18.60;11.60;;;22.60;86.40;;;;;;5031827;28;20056;-66
2023/09/14 00:07:11;;;;;;;17.52;10.60;;;22.40;86.90;;;;;;5031557;28;20066;-67
2023/09/14 00:10:15;;;;;;;15.45;10.52;;;22.40;86.90;;;;;;5031559;28;20040;-66
2023/09/14 00:13:19;;;;;;;13.73;11.23;;;22.40;86.30;;;;;;5031403;28;20044;-68
2023/09/14 00:16:23;;;;;;;18.05;9.93;;;22.30;85.80;;;;;;5031543;28;20401;-67
2023/09/14 00:19:27;;;;;;;13.75;10.68;;;22.30;86.10;;;;;;5031544;28;20048;-67
2023/09/14 00:22:31;;;;;;;13.48;10.30;;;22.30;85.80;;;;;;5031273;28;20041;-67
2023/09/14 00:25:35;;;;;;;14.05;11.07;;;22.40;86.10;;;;;;5031146;28;20040;-67
2023/09/14 00:28:39;;;;;;;12.73;10.57;;;22.40;86.30;;;;;;5031338;28;20401;-67
2023/09/14 00:31:43;;;;;;;18.23;11.70;;;22.40;86.50;;;;;;5031366;28;20503;-66
2023/09/14 00:34:47;;;;;;;16.27;12.00;;;22.40;87.00;;;;;;5031173;28;20072;-67
2023/09/14 00:37:51;;;;;;;24.25;12.40;;;22.20;87.60;;;;;;5030985;28;20044;-67
2023/09/14 00:40:55;;;;;;;19.00;11.98;;;22.10;87.50;;;;;;5030074;28;20045;-67
2023/09/14 00:43:59;;;;;;;17.73;11.82;;;22.10;87.40;;;;;;5030783;28;20385;-67
2023/09/14 00:47:03;;;;;;;16.48;11.75;;;22.20;88.10;;;;;;5030818;28;20409;-66
2023/09/14 00:50:07;;;;;;;19.40;11.60;;;22.30;87.90;;;;;;5030873;28;20048;-67
2023/09/14 00:53:13;;;;;;;17.02;12.02;;;22.40;87.60;;;;;;5030975;28;20045;-67
2023/09/14 00:56:18;;;;;;;14.75;11.88;;;22.30;88.00;;;;;;5030725;28;20045;-66
2023/09/14 00:59:23;;;;;;;17.35;12.82;;;22.30;88.20;;;;;;5031131;28;20385;-66
2023/09/14 01:02:26;;;;;;;21.23;13.15;;;22.40;87.70;;;;;;5029877;28;20045;-67
2023/09/14 01:05:31;;;;;;;18.65;13.00;;;22.30;88.10;;;;;;5033373;28;20056;-66
2023/09/14 01:08:35;;;;;;;19.83;12.00;;;22.30;88.20;;;;;;5034082;28;20457;-67
2023/09/14 01:11:39;;;;;;;18.65;12.45;;;22.30;88.20;;;;;;5034715;28;20045;-66
2023/09/14 01:14:56;;;;;;;18.00;13.18;;;22.40;87.80;;;;;;5034562;28;20048;-67
2023/09/14 01:18:11;;;;;;;17.50;12.70;;;22.40;88.20;;;;;;5034070;28;20497;-67
2023/09/14 01:21:41;;;;;;;17.17;12.63;;;22.40;88.30;;;;;;5033769;28;20393;-67
2023/09/14 01:25:08;;;;;;;19.10;12.27;;;22.30;88.50;;;;;;5033632;28;20072;-67
2023/09/14 01:28:14;;;;;;;18.48;12.85;;;22.30;89.20;;;;;;5033789;28;20045;-67
2023/09/14 01:31:19;;;;;;;20.95;12.60;;;22.50;89.50;;;;;;5034517;28;20233;-67
2023/09/14 01:34:23;;;;;;;14.80;12.85;;;22.40;88.80;;;;;;5034235;28;20393;-67
2023/09/14 01:37:28;;;;;;;17.95;13.15;;;22.30;88.80;;;;;;5033413;28;20044;-67
2023/09/14 01:40:34;;;;;;;17.65;12.95;;;22.20;89.10;;;;;;5034206;28;20045;-67
2023/09/14 01:43:39;;;;;;;16.20;11.88;;;22.20;88.90;;;;;;5034086;28;20044;-67
2023/09/14 01:46:44;;;;;;;19.27;13.05;;;22.10;89.10;;;;;;5033755;28;20052;-67
2023/09/14 01:49:47;;;;;;;19.88;13.43;;;22.20;89.50;;;;;;5034105;28;20056;-67
2023/09/14 01:52:52;;;;;;;20.08;13.20;;;22.10;89.40;;;;;;5034068;28;20040;-67
2023/09/14 01:55:56;;;;;;;18.33;13.07;;;22.30;89.40;;;;;;5033063;28;20516;-67
2023/09/14 01:59:00;;;;;;;26.92;14.48;;;22.30;89.50;;;;;;5056210;28;20048;-66
2023/09/14 02:02:04;;;;;;;24.00;13.10;;;22.20;89.00;;;;;;5033113;28;20040;-66
2023/09/14 02:05:08;;;;;;;19.55;13.85;;;22.20;89.90;;;;;;5033090;28;20064;-66
2023/09/14 02:08:12;;;;;;;19.10;13.70;;;22.10;90.10;;;;;;5032690;28;20057;-66
2023/09/14 02:11:16;;;;;;;25.38;15.43;;;22.10;90.00;;;;;;5033706;28;20036;-66
2023/09/14 02:14:20;;;;;;;18.63;13.60;;;22.10;90.20;;;;;;5032668;28;20143;-66
2023/09/14 02:17:24;;;;;;;20.95;13.57;;;22.10;90.40;;;;;;5031397;28;20040;-66
2023/09/14 02:20:28;;;;;;;18.52;13.60;;;22.20;90.20;;;;;;5032676;28;20049;-66
2023/09/14 02:23:32;;;;;;;25.58;14.30;;;22.20;90.30;;;;;;5033516;28;20052;-66
2023/09/14 02:26:36;;;;;;;23.48;13.90;;;22.00;90.20;;;;;;5033274;28;20113;-66
2023/09/14 02:29:40;;;;;;;19.80;13.77;;;22.00;90.40;;;;;;5032589;28;20052;-66
2023/09/14 02:32:47;;;;;;;19.90;13.32;;;22.00;90.50;;;;;;5033069;28;20056;-66
2023/09/14 02:35:51;;;;;;;17.60;13.63;;;22.00;90.50;;;;;;5032462;28;20048;-66
2023/09/14 02:38:55;;;;;;;22.20;14.80;;;22.10;90.30;;;;;;5032288;28;20048;-66
2023/09/14 02:41:59;;;;;;;18.67;13.85;;;22.10;90.20;;;;;;5032437;28;20062;-66
2023/09/14 02:45:04;;;;;;;21.23;13.55;;;22.10;90.10;;;;;;5032886;28;20040;-66
2023/09/14 02:48:08;;;;;;;20.42;15.05;;;22.10;90.20;;;;;;5032037;28;20059;-66
2023/09/14 02:51:12;;;;;;;20.80;13.85;;;22.20;90.10;;;;;;5033047;28;20048;-67
2023/09/14 02:54:17;;;;;;;21.38;13.07;;;22.20;90.00;;;;;;5032147;28;20049;-67
2023/09/14 02:57:20;;;;;;;17.77;13.32;;;22.20;90.20;;;;;;5032821;28;20484;-67
2023/09/14 03:00:24;;;;;;;19.38;14.32;;;22.30;90.10;;;;;;5032810;28;20048;-67
2023/09/14 03:03:29;;;;;;;20.92;14.30;;;22.30;89.90;;;;;;5032812;28;20057;-67
2023/09/14 03:06:34;;;;;;;23.20;13.45;;;22.30;90.00;;;;;;5031659;28;20064;-67
2023/09/14 03:09:38;;;;;;;17.02;13.77;;;22.30;89.80;;;;;;5054670;28;20508;-67
2023/09/14 03:12:42;;;;;;;17.38;14.45;;;22.30;89.60;;;;;;5031627;28;20049;-67
2023/09/14 03:15:46;;;;;;;17.25;13.07;;;22.20;90.10;;;;;;5031597;28;20048;-67
2023/09/14 03:18:50;;;;;;;20.15;14.13;;;22.30;90.10;;;;;;5054715;28;20041;-67
2023/09/14 03:21:54;;;;;;;20.30;13.15;;;22.30;90.30;;;;;;5031588;28;20044;-67
2023/09/14 03:24:57;;;;;;;18.77;13.48;;;22.30;90.30;;;;;;5054640;28;20045;-67
2023/09/14 03:28:01;;;;;;;21.80;13.60;;;22.40;90.10;;;;;;5031133;28;20056;-67
2023/09/14 03:31:05;;;;;;;31.02;19.63;;;22.30;90.30;;;;;;5031429;28;20148;-67
2023/09/14 03:34:09;;;;;;;23.08;16.17;;;22.30;90.50;;;;;;5031077;28;20060;-67
2023/09/14 03:37:16;;;;;;;19.80;15.70;;;22.30;90.50;;;;;;5031917;28;20077;-67
2023/09/14 03:40:19;;;;;;;22.05;14.95;;;22.20;90.40;;;;;;5031341;28;20049;-67
2023/09/14 03:43:23;;;;;;;16.88;13.60;;;22.20;90.80;;;;;;5032095;28;20041;-67
2023/09/14 03:46:27;;;;;;;22.52;14.55;;;22.20;90.80;;;;;;5031628;28;20045;-67
2023/09/14 03:49:31;;;;;;;21.38;15.88;;;22.20;90.70;;;;;;5030977;28;20052;-67
2023/09/14 03:52:36;;;;;;;24.70;17.08;;;22.10;91.10;;;;;;5031205;28;20040;-67
2023/09/14 03:55:41;;;;;;;30.27;17.58;;;22.10;91.20;;;;;;5031580;28;20048;-67
2023/09/14 03:58:45;;;;;;;30.65;16.20;;;22.10;91.40;;;;;;5030833;28;20040;-67
2023/09/14 04:01:52;;;;;;;25.05;15.93;;;22.20;91.10;;;;;;5031693;28;20500;-67
2023/09/14 04:04:56;;;;;;;21.90;15.57;;;22.20;91.30;;;;;;5031685;28;20146;-67
2023/09/14 04:08:00;;;;;;;23.30;16.17;;;22.30;90.90;;;;;;5031360;28;20655;-67
2023/09/14 04:11:04;;;;;;;18.65;16.45;;;22.20;91.10;;;;;;5031547;28;20053;-67
2023/09/14 04:14:08;;;;;;;32.35;17.15;;;22.20;91.10;;;;;;5030492;28;20044;-68
2023/09/14 04:17:11;;;;;;;21.13;16.17;;;22.20;91.20;;;;;;5030461;28;20080;-67
2023/09/14 04:20:16;;;;;;;22.77;15.93;;;22.10;91.50;;;;;;5031382;28;20052;-67
2023/09/14 04:23:20;;;;;;;25.80;16.70;;;22.10;91.60;;;;;;5030506;28;20044;-67
2023/09/14 04:26:25;;;;;;;21.33;16.35;;;22.20;91.40;;;;;;5030286;28;20404;-67
2023/09/14 04:29:30;;;;;;;56.67;32.72;;;22.20;91.50;;;;;;5030390;28;20052;-67
2023/09/14 04:32:34;;;;;;;39.92;23.33;;;22.30;91.70;;;;;;5031012;28;20060;-67
2023/09/14 04:35:38;;;;;;;30.75;18.38;;;22.30;91.50;;;;;;5030185;28;20073;-67
2023/09/14 04:38:41;;;;;;;27.55;17.08;;;22.20;91.50;;;;;;5030826;28;20187;-66
2023/09/14 04:41:45;;;;;;;33.58;19.30;;;22.20;91.70;;;;;;5030041;28;20045;-67
2023/09/14 04:44:51;;;;;;;36.80;20.60;;;22.20;91.80;;;;;;5030232;28;20041;-67
2023/09/14 04:47:56;;;;;;;32.88;18.45;;;22.10;91.80;;;;;;5030023;28;20056;-67
2023/09/14 04:51:01;;;;;;;23.92;17.63;;;22.10;91.90;;;;;;5030133;28;20044;-67
2023/09/14 04:54:05;;;;;;;28.98;19.02;;;22.10;91.80;;;;;;5029957;28;20060;-66
2023/09/14 04:57:09;;;;;;;28.05;18.27;;;22.10;91.90;;;;;;5052942;28;20048;-66
2023/09/14 05:00:14;;;;;;;27.20;18.15;;;22.10;91.90;;;;;;5030754;28;20040;-66
2023/09/14 05:03:18;;;;;;;32.95;20.50;;;22.40;92.00;;;;;;5029857;28;20040;-66
2023/09/14 05:06:24;;;;;;;43.38;20.75;;;22.50;92.00;;;;;;5029964;28;20040;-66
2023/09/14 05:09:27;;;;;;;65.63;20.00;;;22.20;91.80;;;;;;5029898;28;20049;-65
2023/09/14 05:12:31;;;;;;;38.92;18.13;;;22.00;92.10;;;;;;5029516;28;20045;-66
2023/09/14 05:15:37;;;;;;;40.53;16.95;;;21.80;92.60;;;;;;5030378;28;20048;-65
2023/09/14 05:18:41;;;;;;;35.97;16.00;;;21.80;92.80;;;;;;5029730;28;20047;-65
2023/09/14 05:21:45;;;;;;;28.50;15.02;;;21.80;92.10;;;;;;5030490;28;20036;-65
2023/09/14 05:24:50;;;;;;;26.83;15.40;;;21.80;91.50;;;;;;5029643;28;20147;-64
2023/09/14 05:27:53;;;;;;;22.45;14.95;;;21.80;91.50;;;;;;5030345;28;20049;-63
2023/09/14 05:30:57;;;;;;;24.70;14.07;;;21.80;90.60;;;;;;5029427;28;20049;-65
2023/09/14 05:34:01;;;;;;;20.67;11.85;;;21.90;90.60;;;;;;5030156;28;20072;-64
2023/09/14 05:37:05;;;;;;;26.45;12.18;;;22.10;90.00;;;;;;5029028;28;20512;-65
2023/09/14 05:40:10;;;;;;;43.03;22.35;;;22.10;90.20;;;;;;5029075;28;20151;-67
2023/09/14 05:43:16;;;;;;;29.52;16.63;;;22.20;90.20;;;;;;5029150;28;20056;-66
2023/09/14 05:46:20;;;;;;;28.88;14.85;;;22.30;90.30;;;;;;5029991;28;20040;-67
2023/09/14 05:49:24;;;;;;;49.42;26.92;;;22.40;90.80;;;;;;5029890;28;20435;-66
2023/09/14 05:52:28;;;;;;;56.33;34.55;;;22.40;90.50;;;;;;5033082;28;20064;-65
2023/09/14 05:55:32;;;;;;;47.28;29.48;;;22.40;90.60;;;;;;5032888;28;20099;-66
2023/09/14 05:58:36;;;;;;;50.28;27.23;;;22.50;90.50;;;;;;5032916;28;20049;-66
2023/09/14 06:01:40;;;;;;;41.80;26.80;;;22.40;90.70;;;;;;5033958;28;20052;-66
2023/09/14 06:04:59;;;;;;;35.15;23.75;;;22.40;90.90;;;;;;5033185;28;20065;-65
2023/09/14 06:08:03;;;;;;;29.52;17.60;;;22.50;91.00;;;;;;5032757;28;20061;-65
2023/09/14 06:11:08;;;;;;;25.00;15.70;;;22.50;90.60;;;;;;5032542;28;20037;-65
2023/09/14 06:14:13;;;;;;;28.95;17.02;;;22.50;90.80;;;;;;5055212;28;20048;-66
2023/09/14 06:17:17;;;;;;;27.75;16.15;;;22.60;90.90;;;;;;5033075;28;20124;-67
2023/09/14 06:20:21;;;;;;;34.00;15.88;;;22.50;91.20;;;;;;5033329;28;20060;-66
2023/09/14 06:23:25;;;;;;;27.27;14.57;;;22.70;91.10;;;;;;5033320;28;20052;-67
2023/09/14 06:26:29;;;;;;;50.45;16.70;;;22.80;90.70;;;;;;5033065;28;20052;-66
2023/09/14 06:29:33;;;;;;;30.15;14.98;;;22.90;90.90;;;;;;5033360;28;20052;-67
2023/09/14 06:32:37;;;;;;;29.92;14.93;;;22.90;90.60;;;;;;5031575;28;20393;-67
2023/09/14 06:35:42;;;;;;;30.50;15.90;;;22.90;90.90;;;;;;5033112;28;20064;-67
2023/09/14 06:38:47;;;;;;;24.02;14.00;;;23.00;91.10;;;;;;5032812;28;20504;-67
2023/09/14 06:41:51;;;;;;;30.42;14.90;;;23.10;90.90;;;;;;5033352;28;20527;-68
2023/09/14 06:44:55;;;;;;;33.75;19.45;;;23.10;91.10;;;;;;5032690;28;20052;-68
2023/09/14 06:48:00;;;;;;;37.53;19.60;;;23.30;90.90;;;;;;5032566;28;20405;-68
2023/09/14 06:51:05;;;;;;;26.63;16.17;;;23.30;90.80;;;;;;5033017;28;20045;-68
2023/09/14 06:54:09;;;;;;;28.55;18.98;;;23.40;90.70;;;;;;5032716;28;20044;-68
2023/09/14 06:57:13;;;;;;;40.80;21.90;;;23.50;90.70;;;;;;5031695;28;20620;-70
2023/09/14 07:00:21;;;;;;;69.18;21.75;;;23.50;90.90;;;;;;5032473;28;20040;-66
2023/09/14 07:03:24;;;;;;;66.72;20.90;;;23.60;91.00;;;;;;5031959;28;20048;-68
2023/09/14 07:06:28;;;;;;;43.22;17.23;;;23.60;91.10;;;;;;5032271;28;20044;-67
2023/09/14 07:09:33;;;;;;;26.55;16.77;;;23.60;91.30;;;;;;5032243;28;20057;-66
2023/09/14 07:12:36;;;;;;;28.70;17.38;;;23.70;91.10;;;;;;5032454;28;20041;-67
2023/09/14 07:15:40;;;;;;;32.03;17.20;;;23.80;91.20;;;;;;5030784;28;20044;-67
2023/09/14 07:18:45;;;;;;;41.25;18.67;;;24.00;91.10;;;;;;5031960;28;20045;-68
2023/09/14 07:21:49;;;;;;;22.65;15.75;;;24.40;90.80;;;;;;5032369;28;20052;-67
2023/09/14 07:24:54;;;;;;;32.33;19.33;;;24.40;90.90;;;;;;5032095;28;20052;-67
2023/09/14 07:27:58;;;;;;;36.80;21.75;;;26.70;91.00;;;;;;5031827;28;20056;-67
2023/09/14 07:31:06;;;;;;;42.17;24.23;;;24.70;90.60;;;;;;5031902;28;20056;-67
2023/09/14 07:34:13;;;;;;;44.65;25.38;;;25.50;90.50;;;;;;5031989;28;20064;-67
2023/09/14 07:37:17;;;;;;;39.00;26.35;;;24.80;90.50;;;;;;5032150;28;20045;-67
2023/09/14 07:40:21;;;;;;;42.72;24.80;;;24.60;90.50;;;;;;5031605;28;20713;-68
2023/09/14 07:43:25;;;;;;;38.40;23.27;;;24.90;90.50;;;;;;5031914;28;20160;-68
2023/09/14 07:46:31;;;;;;;28.70;19.67;;;26.40;91.10;;;;;;5031740;28;20044;-68
2023/09/14 07:49:35;;;;;;;25.98;17.63;;;24.40;90.60;;;;;;5019262;28;20048;-68
2023/09/14 07:52:41;;;;;;;33.80;19.02;;;25.10;91.10;;;;;;5031625;28;20044;-68
2023/09/14 07:55:50;;;;;;;23.13;15.98;;;25.10;91.30;;;;;;5031519;28;20520;-68
2023/09/14 07:58:55;;;;;;;29.45;17.10;;;25.30;91.50;;;;;;5031544;28;20040;-68
2023/09/14 08:01:59;;;;;;;28.92;18.00;;;25.40;90.90;;;;;;5031402;28;20037;-68
2023/09/14 08:05:03;;;;;;;27.98;15.65;;;25.50;90.80;;;;;;5031076;28;20049;-66
2023/09/14 08:08:09;;;;;;;25.30;13.73;;;25.50;91.20;;;;;;5031204;28;20060;-67
2023/09/14 08:11:14;;;;;;;24.55;13.77;;;25.70;91.40;;;;;;5031389;28;20045;-67
2023/09/14 08:14:18;;;;;;;184.13;28.48;;;26.00;91.70;;;;;;5030779;28;20053;-67
2023/09/14 08:17:22;;;;;;;40.00;16.92;;;26.30;90.40;;;;;;5031010;28;20052;-67
2023/09/14 08:20:27;;;;;;;45.40;22.08;;;26.30;90.60;;;;;;5031098;28;20381;-68
2023/09/14 08:23:32;;;;;;;30.38;19.15;;;26.20;90.20;;;;;;5031415;28;20646;-67
2023/09/14 08:26:36;;;;;;;33.42;18.67;;;26.30;90.20;;;;;;5031156;28;20060;-66
2023/09/14 08:29:45;;;;;;;30.38;16.88;;;26.20;90.30;;;;;;5031149;28;20516;-66
2023/09/14 08:32:49;;;;;;;63.08;20.42;;;26.20;90.30;;;;;;5030596;28;20036;-66
2023/09/14 08:35:53;;;;;;;43.08;18.73;;;26.10;90.50;;;;;;5030803;28;20048;-66
2023/09/14 08:38:56;;;;;;;34.47;19.27;;;26.00;90.10;;;;;;5031058;28;20120;-66
2023/09/14 08:42:01;;;;;;;39.90;19.25;;;25.90;90.40;;;;;;5031053;28;20053;-67
2023/09/14 08:45:10;;;;;;;38.55;17.95;;;25.40;90.30;;;;;;5030852;28;20056;-66
2023/09/14 08:48:17;;;;;;;27.73;15.70;;;26.00;90.70;;;;;;5030739;28;20401;-66
2023/09/14 08:51:23;;;;;;;39.00;19.38;;;26.20;90.70;;;;;;5030889;28;20040;-67
2023/09/14 08:54:28;;;;;;;34.45;17.38;;;26.30;90.50;;;;;;5030906;28;20500;-66
2023/09/14 08:57:34;;;;;;;32.22;17.85;;;26.40;90.60;;;;;;5030603;28;20059;-67
2023/09/14 09:00:39;;;;;;;26.75;16.45;;;26.40;90.80;;;;;;5030928;28;20045;-67
2023/09/14 09:03:43;;;;;;;27.38;15.07;;;26.60;90.50;;;;;;5030968;28;20423;-66
2023/09/14 09:06:48;;;;;;;21.27;13.48;;;26.70;90.10;;;;;;5030548;28;20040;-67
2023/09/14 09:09:52;;;;;;;17.88;12.60;;;27.00;89.70;;;;;;5030625;28;20060;-66
2023/09/14 09:13:01;;;;;;;21.52;13.20;;;27.10;89.10;;;;;;5030704;28;20056;-66
2023/09/14 09:16:06;;;;;;;31.38;14.20;;;27.10;88.70;;;;;;5030368;28;20048;-66
2023/09/14 09:19:12;;;;;;;20.27;12.00;;;27.00;88.40;;;;;;5030673;28;20040;-65
2023/09/14 09:22:17;;;;;;;18.98;10.82;;;26.90;88.60;;;;;;5030371;28;20040;-66
2023/09/14 09:25:23;;;;;;;13.80;10.25;;;26.90;88.60;;;;;;5030738;28;20044;-66
2023/09/14 09:28:30;;;;;;;11.85;9.10;;;26.90;88.90;;;;;;5034329;28;20512;-66
2023/09/14 09:31:41;;;;;;;13.00;9.40;;;26.80;88.70;;;;;;5034122;28;20045;-64
2023/09/14 09:34:45;;;;;;;11.85;8.85;;;26.90;88.20;;;;;;5032798;28;20519;-64
2023/09/14 09:37:51;;;;;;;17.92;9.65;;;26.90;87.90;;;;;;5033943;28;20040;-65
2023/09/14 09:41:00;;;;;;;13.65;9.57;;;26.90;87.60;;;;;;5033924;28;20044;-65
2023/09/14 09:44:14;;;;;;;17.42;9.57;;;26.90;87.40;;;;;;5033877;28;20044;-65
2023/09/14 09:47:17;;;;;;;19.80;10.38;;;26.90;87.00;;;;;;5034176;28;20054;-65
2023/09/14 09:50:22;;;;;;;17.73;11.38;;;26.90;86.90;;;;;;5034156;28;20063;-65
2023/09/14 09:53:27;;;;;;;11.20;9.85;;;27.00;87.20;;;;;;5033549;28;20056;-64
2023/09/14 09:56:33;;;;;;;18.42;10.07;;;27.10;87.10;;;;;;5033971;28;20428;-65
2023/09/14 09:59:40;;;;;;;14.73;9.82;;;27.20;86.50;;;;;;5033665;28;20044;-65
2023/09/14 10:02:44;;;;;;;13.45;9.52;;;27.20;86.20;;;;;;5033821;28;20056;-65
2023/09/14 10:05:48;;;;;;;16.05;8.95;;;27.30;85.50;;;;;;5033444;28;20040;-65
2023/09/14 10:08:53;;;;;;;9.90;8.88;;;27.30;85.30;;;;;;5033301;28;20057;-65
2023/09/14 10:12:03;;;;;;;12.43;9.57;;;27.40;85.10;;;;;;5033584;28;20049;-65
2023/09/14 10:15:08;;;;;;;12.35;9.80;;;27.70;84.40;;;;;;5033342;28;20044;-65
2023/09/14 10:18:13;;;;;;;13.48;10.13;;;27.90;84.10;;;;;;5033381;28;20129;-65
2023/09/14 10:21:19;;;;;;;19.75;10.60;;;28.30;83.30;;;;;;5033302;28;20492;-65
2023/09/14 10:24:24;;;;;;;18.10;10.85;;;28.60;82.50;;;;;;5033542;28;20056;-65
2023/09/14 10:27:30;;;;;;;23.65;10.27;;;28.90;82.00;;;;;;5033302;28;20041;-65
2023/09/14 10:30:34;;;;;;;17.20;9.90;;;29.00;81.60;;;;;;5032884;28;20401;-65
2023/09/14 10:33:47;;;;;;;14.38;9.93;;;29.10;81.30;;;;;;5032765;28;20397;-63
2023/09/14 10:36:53;;;;;;;20.55;11.23;;;29.10;81.60;;;;;;5032284;28;20052;-66
2023/09/14 10:40:00;;;;;;;15.20;10.07;;;29.10;82.50;;;;;;5032834;28;20046;-65
2023/09/14 10:43:05;;;;;;;18.30;11.30;;;29.20;82.90;;;;;;5033117;28;20052;-64
2023/09/14 10:46:18;;;;;;;22.13;13.30;;;29.30;82.70;;;;;;5032669;28;20369;-65
2023/09/14 10:49:29;;;;;;;15.15;10.27;;;29.40;82.30;;;;;;5032653;28;20053;-64
2023/09/14 10:52:33;;;;;;;23.80;12.43;;;29.40;82.50;;;;;;5033060;28;20048;-66
2023/09/14 10:55:38;;;;;;;26.48;13.43;;;29.40;82.50;;;;;;5032617;28;20500;-66
2023/09/14 10:58:43;;;;;;;20.83;12.65;;;29.40;82.50;;;;;;5032806;28;20056;-67
2023/09/14 11:01:48;;;;;;;17.88;11.07;;;29.30;82.50;;;;;;5032694;28;20052;-67
2023/09/14 11:05:15;;;;;;;18.67;11.02;;;29.20;82.80;;;;;;5032081;28;20091;-66
2023/09/14 11:08:20;;;;;;;16.80;10.38;;;29.20;82.90;;;;;;5030523;28;20068;-66
2023/09/14 11:11:44;;;;;;;17.60;11.95;;;29.20;82.60;;;;;;5030587;28;20390;-66
2023/09/14 11:15:21;;;;;;;14.45;11.15;;;29.10;82.50;;;;;;5031074;28;20068;-66
2023/09/14 11:18:43;;;;;;;16.17;10.65;;;29.00;82.50;;;;;;5030854;28;20052;-66
2023/09/14 11:21:48;;;;;;;22.25;12.98;;;29.00;82.60;;;;;;5031930;28;20049;-65
2023/09/14 11:24:51;;;;;;;24.63;13.50;;;28.90;82.70;;;;;;5032151;28;20064;-64
2023/09/14 11:28:00;;;;;;;23.92;11.70;;;28.90;82.80;;;;;;5032222;28;20040;-66
2023/09/14 11:31:04;;;;;;;11.65;10.38;;;28.90;83.00;;;;;;5031000;28;20056;-65
2023/09/14 11:34:14;;;;;;;16.70;11.07;;;28.90;83.20;;;;;;5031247;28;20052;-64
2023/09/14 11:37:19;;;;;;;14.35;12.30;;;28.90;83.40;;;;;;5030258;28;20052;-65
2023/09/14 11:40:32;;;;;;;18.02;11.25;;;28.80;83.50;;;;;;5028488;28;20048;-65
2023/09/14 11:43:57;;;;;;;20.30;13.88;;;28.80;83.80;;;;;;5026774;28;20052;-65
2023/09/14 11:47:02;;;;;;;17.65;11.43;;;28.80;83.80;;;;;;5029786;28;20049;-65
2023/09/14 11:50:07;;;;;;;16.73;12.43;;;28.70;83.70;;;;;;5030619;28;20056;-65
2023/09/14 11:53:13;;;;;;;16.85;12.73;;;28.70;84.10;;;;;;5030997;28;20661;-65
2023/09/14 11:56:18;;;;;;;21.48;14.07;;;28.70;84.50;;;;;;5031585;28;20052;-65
2023/09/14 11:59:32;;;;;;;18.08;13.05;;;28.60;84.70;;;;;;5031374;28;20497;-65
2023/09/14 12:02:36;;;;;;;19.60;13.73;;;28.60;85.10;;;;;;5031517;28;20048;-65
2023/09/14 12:05:40;;;;;;;17.05;12.68;;;28.60;85.30;;;;;;5031675;28;20397;-65
2023/09/14 12:08:48;;;;;;;15.38;12.82;;;28.60;85.40;;;;;;5031142;28;20413;-65
2023/09/14 12:11:53;;;;;;;24.50;17.92;;;28.60;85.60;;;;;;5031330;28;20052;-65
2023/09/14 12:15:01;;;;;;;16.35;12.80;;;28.60;86.00;;;;;;5031460;28;20056;-65
2023/09/14 12:18:06;;;;;;;20.27;15.20;;;28.60;86.00;;;;;;5030334;28;20052;-65
2023/09/14 12:21:11;;;;;;;18.83;14.95;;;28.60;86.00;;;;;;5031049;28;20045;-65
2023/09/14 12:24:15;;;;;;;27.48;19.08;;;28.60;86.20;;;;;;5031327;28;20056;-65
2023/09/14 12:27:20;;;;;;;19.38;14.55;;;28.60;86.30;;;;;;5030959;28;20037;-65
2023/09/14 12:30:23;;;;;;;17.20;12.70;;;28.60;86.50;;;;;;5031021;28;20056;-66
2023/09/14 12:33:29;;;;;;;17.83;13.20;;;28.60;86.60;;;;;;5031009;28;20510;-66
2023/09/14 12:36:34;;;;;;;26.48;15.45;;;28.70;86.80;;;;;;5030986;28;20053;-66
2023/09/14 12:39:41;;;;;;;20.77;13.68;;;28.70;86.70;;;;;;5031086;28;20060;-66
2023/09/14 12:42:44;;;;;;;18.10;13.32;;;28.70;86.70;;;;;;5030981;28;20040;-65
2023/09/14 12:45:50;;;;;;;17.52;14.02;;;28.60;86.80;;;;;;5029691;28;20048;-65
2023/09/14 12:49:02;;;;;;;15.57;13.35;;;28.70;86.90;;;;;;5030695;28;20072;-65
2023/09/14 12:52:07;;;;;;;17.52;14.00;;;28.70;87.00;;;;;;5030742;28;20048;-65
2023/09/14 12:55:18;;;;;;;16.10;14.15;;;28.60;87.10;;;;;;5030581;28;20052;-65
2023/09/14 12:58:22;;;;;;;27.13;16.08;;;28.60;87.30;;;;;;5030040;28;20064;-65
2023/09/14 13:01:26;;;;;;;27.10;18.88;;;28.60;87.70;;;;;;5029083;28;20041;-66
2023/09/14 13:04:30;;;;;;;15.23;13.43;;;28.60;87.50;;;;;;5030754;28;20040;-65
2023/09/14 13:07:35;;;;;;;17.98;14.07;;;28.60;87.50;;;;;;5030433;28;20040;-64
2023/09/14 13:10:39;;;;;;;18.02;13.38;;;28.60;87.40;;;;;;5030722;28;20061;-64
2023/09/14 13:13:44;;;;;;;21.38;14.25;;;28.60;87.60;;;;;;5030331;28;20048;-64
2023/09/14 13:16:53;;;;;;;13.77;12.30;;;28.60;87.70;;;;;;5030601;28;20520;-64
2023/09/14 13:19:58;;;;;;;24.52;16.10;;;28.60;87.70;;;;;;5030721;28;20053;-64
2023/09/14 13:23:04;;;;;;;18.77;13.18;;;28.60;87.50;;;;;;5030949;28;20393;-64
2023/09/14 13:26:08;;;;;;;17.25;13.25;;;28.60;87.40;;;;;;5030167;28;20045;-64
2023/09/14 13:29:17;;;;;;;18.20;13.48;;;28.60;87.40;;;;;;5030210;28;20096;-64
2023/09/14 13:32:21;;;;;;;16.23;10.63;;;28.70;87.30;;;;;;5030223;28;20065;-64
2023/09/14 13:35:26;;;;;;;16.88;11.38;;;28.70;87.10;;;;;;5030461;28;20058;-64
2023/09/14 13:38:30;;;;;;;10.73;8.52;;;28.70;86.70;;;;;;5030442;28;20053;-64
2023/09/14 13:41:34;;;;;;;11.70;9.60;;;28.70;85.90;;;;;;5030194;28;20040;-64
2023/09/14 13:44:38;;;;;;;13.35;9.90;;;28.70;85.80;;;;;;5030394;28;20044;-64
2023/09/14 13:47:42;;;;;;;13.25;9.40;;;28.70;85.90;;;;;;5030288;28;20040;-64
2023/09/14 13:50:47;;;;;;;14.23;10.35;;;28.80;86.00;;;;;;5030489;28;20517;-64
2023/09/14 13:53:51;;;;;;;14.18;10.32;;;28.80;85.90;;;;;;5030337;28;20053;-65
2023/09/14 13:56:55;;;;;;;13.68;9.65;;;28.90;86.80;;;;;;5030132;28;20040;-64
2023/09/14 14:00:00;;;;;;;16.85;10.35;;;28.90;87.50;;;;;;5030206;28;20048;-64
2023/09/14 14:03:09;;;;;;;14.60;10.38;;;29.00;88.10;;;;;;5030310;28;20048;-65
2023/09/14 14:06:16;;;;;;;15.18;10.85;;;28.90;88.20;;;;;;5029876;28;20516;-65
2023/09/14 14:09:21;;;;;;;15.02;10.35;;;29.00;88.60;;;;;;5029950;28;20520;-64
2023/09/14 14:12:25;;;;;;;18.52;10.07;;;28.90;88.60;;;;;;5030335;28;20068;-65
2023/09/14 14:15:30;;;;;;;18.52;10.93;;;28.90;88.60;;;;;;5033451;28;20052;-67
2023/09/14 14:18:35;;;;;;;12.00;10.38;;;28.90;88.80;;;;;;5033481;28;20048;-66
2023/09/14 14:21:40;;;;;;;10.07;9.07;;;28.80;89.00;;;;;;5031975;28;20053;-65
2023/09/14 14:24:43;;;;;;;14.48;10.50;;;28.80;89.30;;;;;;5033101;28;20060;-67
2023/09/14 14:27:47;;;;;;;15.00;10.23;;;28.70;88.90;;;;;;5033218;28;20040;-66
2023/09/14 14:30:51;;;;;;;11.50;9.57;;;28.70;89.00;;;;;;5033371;28;20516;-67
2023/09/14 14:33:56;;;;;;;11.60;9.55;;;28.70;89.20;;;;;;5032859;28;20052;-66
2023/09/14 14:37:00;;;;;;;12.38;9.60;;;28.70;89.20;;;;;;5033418;28;20044;-67
2023/09/14 14:40:04;;;;;;;9.90;8.90;;;28.60;89.00;;;;;;5033049;28;20048;-65
2023/09/14 14:43:09;;;;;;;14.80;9.70;;;28.60;89.00;;;;;;5032941;28;20048;-65
2023/09/14 14:46:14;;;;;;;17.00;9.90;;;28.60;89.00;;;;;;5032960;28;20422;-65
2023/09/14 14:49:17;;;;;;;17.05;10.50;;;28.90;88.60;;;;;;5032541;28;20057;-65
2023/09/14 14:52:22;;;;;;;13.15;8.25;;;30.50;85.30;;;;;;5032657;28;20048;-65
2023/09/14 14:55:25;;;;;;;18.60;9.35;;;31.80;80.70;;;;;;5032394;28;20060;-66
2023/09/14 14:58:30;;;;;;;19.83;9.95;;;32.80;78.60;;;;;;5032826;28;20052;-66
2023/09/14 15:01:34;;;;;;;12.43;8.02;;;33.50;77.60;;;;;;5032499;28;20040;-67
2023/09/14 15:04:38;;;;;;;16.65;7.50;;;33.30;76.50;;;;;;5032488;28;20056;-66
2023/09/14 15:07:42;;;;;;;15.55;8.23;;;33.60;75.30;;;;;;5032484;28;20040;-68
2023/09/14 15:10:46;;;;;;;13.95;8.32;;;33.70;75.10;;;;;;5032602;28;20056;-67
2023/09/14 15:13:52;;;;;;;18.38;8.65;;;33.90;75.30;;;;;;5032543;28;20056;-67
2023/09/14 15:16:56;;;;;;;16.17;8.65;;;33.90;75.00;;;;;;5032496;28;20052;-68
2023/09/14 15:20:00;;;;;;;20.50;8.63;;;34.00;74.90;;;;;;5032588;28;20048;-67
2023/09/14 15:23:04;;;;;;;27.05;10.38;;;33.80;74.90;;;;;;5031749;28;20052;-66
2023/09/14 15:26:08;;;;;;;22.65;8.25;;;33.70;74.50;;;;;;5032119;28;20041;-67
2023/09/14 15:29:12;;;;;;;22.42;8.93;;;33.40;74.40;;;;;;5032056;28;20072;-67
2023/09/14 15:32:16;;;;;;;26.70;8.52;;;33.10;74.40;;;;;;5031858;28;20044;-66
2023/09/14 15:35:22;;;;;;;15.27;8.32;;;32.20;75.80;;;;;;5032112;28;20060;-66
2023/09/14 15:38:26;;;;;;;27.65;9.02;;;31.50;76.80;;;;;;5031880;28;20044;-67
2023/09/14 15:41:31;;;;;;;14.75;7.43;;;30.90;77.40;;;;;;5031825;28;20120;-67